createdAt,value
2018-07-25T04:10:04.791Z,840
2018-07-25T04:10:30.268Z,852
2018-07-25T04:10:55.780Z,868
2018-07-25T04:11:21.275Z,880
2018-07-25T04:11:46.831Z,896
2018-07-25T04:12:12.344Z,916
2018-07-25T04:12:37.827Z,928
2018-07-25T04:13:03.333Z,948
2018-07-25T04:13:28.826Z,964
2018-07-25T04:13:54.357Z,976
2018-07-25T04:14:19.857Z,996
2018-07-25T04:14:45.350Z,1008
2018-07-25T04:15:10.902Z,1028
2018-07-25T04:15:36.367Z,1040
2018-07-25T04:16:01.878Z,1060
2018-07-25T04:16:27.368Z,1072
2018-07-25T04:16:52.854Z,1092
2018-07-25T04:17:18.343Z,1108
2018-07-25T04:18:31.670Z,1156
2018-07-25T04:18:57.152Z,1172
2018-07-25T04:19:22.663Z,1192
2018-07-25T04:19:48.245Z,1208
2018-07-25T04:20:13.799Z,1224
2018-07-25T04:20:39.281Z,1240
2018-07-25T04:21:04.798Z,1256
2018-07-25T04:21:30.257Z,1272
2018-07-25T04:21:55.763Z,1288
2018-07-25T04:22:21.288Z,1308
2018-07-25T04:22:46.777Z,1324
2018-07-25T04:23:12.259Z,1348
2018-07-25T04:23:37.769Z,1364
2018-07-25T04:24:03.248Z,1384
2018-07-25T04:24:28.715Z,1404
2018-07-25T04:24:54.292Z,1424
2018-07-25T04:25:19.735Z,1448
2018-07-25T04:25:45.226Z,1468
2018-07-25T04:26:10.716Z,1488
2018-07-25T04:26:36.179Z,1512
2018-07-25T04:27:01.678Z,1536
2018-07-25T04:27:27.215Z,1556
2018-07-25T04:27:52.693Z,1576
2018-07-25T04:28:18.169Z,1596
2018-07-25T04:28:43.658Z,1612
2018-07-25T04:29:09.163Z,1628
2018-07-25T04:29:34.677Z,1648
2018-07-25T04:30:00.150Z,1664
2018-07-25T04:30:25.644Z,1680
2018-07-25T04:30:51.134Z,1700
2018-07-25T04:31:16.608Z,1720
2018-07-25T04:31:42.105Z,1736
2018-07-25T04:32:07.594Z,1756
2018-07-25T04:32:33.084Z,1776
2018-07-25T04:32:58.541Z,1796
2018-07-25T04:33:24.037Z,1812
2018-07-25T04:33:49.536Z,1832
2018-07-25T04:34:15.017Z,1852
2018-07-25T04:34:40.554Z,1872
2018-07-25T04:35:06.018Z,1888
2018-07-25T04:35:31.516Z,1904
2018-07-25T04:35:57.022Z,1924
2018-07-25T04:36:22.507Z,1944
2018-07-25T04:36:48.002Z,1968
2018-07-25T04:37:13.458Z,1996
2018-07-25T04:37:38.974Z,2028
2018-07-25T04:38:04.494Z,2064
2018-07-25T04:38:29.986Z,2096
2018-07-25T04:38:55.524Z,2128
2018-07-25T04:39:21.011Z,2156
2018-07-25T04:39:46.513Z,2184
2018-07-25T04:40:11.990Z,2212
2018-07-25T04:40:37.444Z,2244
2018-07-25T04:41:02.948Z,2272
2018-07-25T04:41:28.432Z,2296
2018-07-25T04:41:53.939Z,2328
2018-07-25T04:42:19.431Z,2360
2018-07-25T04:42:44.972Z,2384
2018-07-25T04:43:10.455Z,2416
2018-07-25T04:43:35.974Z,2444
2018-07-25T04:44:01.464Z,2472
2018-07-25T04:44:26.954Z,2496
2018-07-25T04:44:52.430Z,2516
2018-07-25T04:45:17.929Z,2536
2018-07-25T04:45:43.456Z,2556
2018-07-25T04:46:09.047Z,2580
2018-07-25T04:46:34.484Z,2612
2018-07-25T04:46:59.901Z,2644
2018-07-25T04:47:25.426Z,2672
2018-07-25T04:47:50.905Z,2620
2018-07-25T04:48:16.408Z,2720
2018-07-25T04:49:24.689Z,2972
2018-07-25T04:49:50.160Z,3012
2018-07-25T04:50:15.670Z,3048
2018-07-25T04:50:41.171Z,3080
2018-07-25T04:51:06.685Z,3116
2018-07-25T04:51:32.181Z,3148
2018-07-25T04:51:57.668Z,3180
2018-07-25T04:52:23.191Z,3208
2018-07-25T04:52:48.648Z,3240
2018-07-25T04:53:14.145Z,3268
2018-07-25T04:53:39.633Z,3296
2018-07-25T04:54:05.154Z,3324
2018-07-25T04:54:30.653Z,3356
2018-07-25T04:54:56.122Z,3388
2018-07-25T04:55:21.613Z,3420
2018-07-25T04:55:47.104Z,3448
2018-07-25T04:56:12.591Z,3476
2018-07-25T04:56:38.060Z,3500
2018-07-25T04:57:03.539Z,3536
2018-07-25T04:57:29.042Z,3564
2018-07-25T04:57:54.594Z,3592
2018-07-25T04:58:20.107Z,3620
2018-07-25T04:58:45.574Z,3640
2018-07-25T04:59:11.101Z,3660
2018-07-25T04:59:36.566Z,3680
2018-07-25T05:00:02.033Z,3704
2018-07-25T05:00:27.527Z,3724
2018-07-25T05:00:53.058Z,3744
2018-07-25T05:01:18.614Z,3772
2018-07-25T05:01:44.137Z,3796
2018-07-25T05:02:09.656Z,3824
2018-07-25T05:02:35.187Z,3848
2018-07-25T05:03:00.688Z,3872
2018-07-25T05:03:26.194Z,3900
2018-07-25T05:03:51.681Z,3932
2018-07-25T05:04:17.204Z,3960
2018-07-25T05:04:42.661Z,3992
2018-07-25T05:05:08.153Z,4032
2018-07-25T05:05:33.659Z,4068
2018-07-25T05:05:59.194Z,4100
2018-07-25T05:06:24.709Z,4124
2018-07-25T05:06:50.210Z,4156
2018-07-25T05:07:15.789Z,4192
2018-07-25T05:07:41.191Z,4232
2018-07-25T05:08:06.741Z,4272
2018-07-25T05:08:32.237Z,4312
2018-07-25T05:08:57.757Z,4352
2018-07-25T05:09:23.274Z,4392
2018-07-25T05:10:36.551Z,4484
2018-07-25T05:11:02.028Z,4512
2018-07-25T05:11:27.507Z,4532
2018-07-25T05:11:52.997Z,4564
2018-07-25T05:12:18.491Z,4596
2018-07-25T05:12:43.985Z,4624
2018-07-25T05:13:09.490Z,4656
2018-07-25T05:13:34.995Z,4688
2018-07-25T05:14:00.479Z,4720
2018-07-25T05:14:26.002Z,4748
2018-07-25T05:14:51.498Z,4776
2018-07-25T05:15:16.984Z,4796
2018-07-25T05:15:42.476Z,4820
2018-07-25T05:16:07.967Z,4840
2018-07-25T05:16:33.424Z,4864
2018-07-25T05:16:58.928Z,4896
2018-07-25T05:17:24.396Z,4928
2018-07-25T05:17:49.946Z,4960
2018-07-25T05:18:15.374Z,4996
2018-07-25T05:18:40.863Z,5032
2018-07-25T05:19:06.348Z,5064
2018-07-25T05:19:31.914Z,5092
2018-07-25T05:19:57.412Z,5116
2018-07-25T05:20:22.945Z,4960
2018-07-25T05:20:48.472Z,5156
2018-07-25T05:21:13.957Z,5204
2018-07-25T05:21:39.435Z,5248
2018-07-25T05:22:04.924Z,5288
2018-07-25T05:22:30.419Z,5340
2018-07-25T05:22:55.931Z,5380
2018-07-25T05:23:21.567Z,5400
2018-07-25T05:23:46.998Z,5408
2018-07-25T05:24:12.494Z,5440
2018-07-25T05:24:38.003Z,5468
2018-07-25T05:25:03.485Z,5484
2018-07-25T05:25:28.993Z,5520
2018-07-25T05:25:54.479Z,5552
2018-07-25T05:26:19.925Z,5576
2018-07-25T05:26:45.431Z,5584
2018-07-25T05:27:10.914Z,5604
2018-07-25T05:27:36.419Z,5620
2018-07-25T05:28:01.907Z,5644
2018-07-25T05:28:27.412Z,5680
2018-07-25T05:28:52.873Z,5716
2018-07-25T05:29:18.376Z,5744
2018-07-25T05:29:43.903Z,5748
2018-07-25T05:30:09.490Z,5736
2018-07-25T05:30:35.005Z,5736
2018-07-25T05:31:00.490Z,5740
2018-07-25T05:31:25.981Z,5736
2018-07-25T05:32:44.427Z,5868
2018-07-25T05:33:09.906Z,5908
2018-07-25T05:33:35.423Z,5940
2018-07-25T05:34:00.933Z,5968
2018-07-25T05:34:26.415Z,6000
2018-07-25T05:34:51.905Z,6024
2018-07-25T05:35:17.401Z,6056
2018-07-25T05:35:42.895Z,6068
2018-07-25T05:36:08.396Z,6084
2018-07-25T05:36:33.956Z,6100
2018-07-25T05:36:59.420Z,6112
2018-07-25T05:37:24.951Z,6140
2018-07-25T05:37:50.469Z,6164
2018-07-25T05:38:16.038Z,6192
2018-07-25T05:38:41.475Z,6220
2018-07-25T05:39:06.987Z,6260
2018-07-25T05:39:32.501Z,6308
2018-07-25T05:39:58.000Z,6384
2018-07-25T05:40:23.492Z,6520
2018-07-25T05:40:49.003Z,6764
2018-07-25T05:41:14.487Z,7196
2018-07-25T05:41:40.029Z,7876
2018-07-25T05:42:05.479Z,8912
2018-07-25T05:42:31.024Z,10024
2018-07-25T05:42:56.519Z,11164
2018-07-25T05:43:22.027Z,12152
2018-07-25T05:43:47.564Z,12704
2018-07-25T05:44:13.094Z,12872
2018-07-25T05:44:38.613Z,12388
2018-07-25T05:45:04.094Z,11524
2018-07-25T05:45:29.652Z,10532
2018-07-25T05:45:55.169Z,9680
2018-07-25T05:46:20.644Z,9036
2018-07-25T05:46:46.154Z,8556
2018-07-25T05:47:11.641Z,8348
2018-07-25T05:47:37.112Z,8240
2018-07-25T05:48:02.627Z,8176
2018-07-25T05:48:28.131Z,8132
2018-07-25T05:48:53.634Z,8144
2018-07-25T05:49:19.193Z,8184
2018-07-25T05:49:44.648Z,8268
2018-07-25T05:50:10.160Z,8360
2018-07-25T05:50:35.652Z,8484
2018-07-25T05:51:01.184Z,8576
2018-07-25T05:52:24.704Z,8516
2018-07-25T05:52:50.208Z,8380
2018-07-25T05:53:15.721Z,8260
2018-07-25T05:53:41.212Z,8180
2018-07-25T05:54:06.695Z,8124
2018-07-25T05:54:32.223Z,8108
2018-07-25T05:54:57.724Z,8136
2018-07-25T05:55:23.213Z,8220
2018-07-25T05:55:48.662Z,8296
2018-07-25T05:56:14.178Z,8424
2018-07-25T05:56:39.677Z,8516
2018-07-25T05:57:05.248Z,8572
2018-07-25T05:57:30.745Z,8640
2018-07-25T05:57:56.253Z,8652
2018-07-25T05:58:21.867Z,8648
2018-07-25T05:58:47.416Z,8644
2018-07-25T05:59:12.867Z,8656
2018-07-25T05:59:38.446Z,8656
2018-07-25T06:00:03.959Z,8648
2018-07-25T06:00:29.455Z,8620
2018-07-25T06:00:54.957Z,8576
2018-07-25T06:01:20.494Z,8540
2018-07-25T06:01:46.026Z,8556
2018-07-25T06:02:11.532Z,8576
2018-07-25T06:03:35.091Z,8832
2018-07-25T06:04:00.502Z,8912
2018-07-25T06:04:26.029Z,8984
2018-07-25T06:04:51.507Z,9036
2018-07-25T06:05:17.032Z,9080
2018-07-25T06:05:42.542Z,9052
2018-07-25T06:06:08.065Z,8960
2018-07-25T06:06:33.526Z,8848
2018-07-25T06:06:59.029Z,8768
2018-07-25T06:07:24.588Z,8760
2018-07-25T06:07:50.076Z,8788
2018-07-25T06:08:15.610Z,8876
2018-07-25T06:08:41.116Z,9020
2018-07-25T06:09:06.580Z,9152
2018-07-25T06:09:32.109Z,9260
2018-07-25T06:09:57.625Z,9364
2018-07-25T06:10:23.148Z,9488
2018-07-25T06:10:48.666Z,9648
2018-07-25T06:11:14.171Z,9816
2018-07-25T06:11:39.730Z,9992
2018-07-25T06:12:05.261Z,10204
2018-07-25T06:12:30.775Z,10356
2018-07-25T06:12:56.306Z,10472
2018-07-25T06:13:21.757Z,10596
2018-07-25T06:13:47.255Z,10644
2018-07-25T06:14:12.784Z,10680
2018-07-25T06:14:38.234Z,10696
2018-07-25T06:15:03.710Z,10696
2018-07-25T06:15:29.177Z,10696
2018-07-25T06:15:54.651Z,10700
2018-07-25T06:16:20.152Z,10848
2018-07-25T06:16:45.628Z,11024
2018-07-25T06:17:11.131Z,11168
2018-07-25T06:17:36.654Z,11284
2018-07-25T06:18:02.120Z,11332
2018-07-25T06:18:27.608Z,11364
2018-07-25T06:18:53.066Z,11396
2018-07-25T06:19:18.604Z,11436
2018-07-25T06:19:44.111Z,11504
2018-07-25T06:20:09.702Z,11564
2018-07-25T06:20:35.307Z,11664
2018-07-25T06:21:00.704Z,11704
2018-07-25T06:21:26.210Z,11812
2018-07-25T06:21:51.696Z,12004
2018-07-25T06:22:17.188Z,12456
2018-07-25T06:22:42.693Z,13240
2018-07-25T06:23:08.201Z,14344
2018-07-25T06:23:33.649Z,15268
2018-07-25T06:23:59.135Z,15840
2018-07-25T06:24:24.660Z,16032
2018-07-25T06:24:50.132Z,15400
2018-07-25T06:25:15.598Z,14144
2018-07-25T06:25:41.127Z,14004
2018-07-25T06:26:06.618Z,13748
2018-07-25T06:26:32.186Z,13660
2018-07-25T06:26:57.696Z,13556
2018-07-25T06:27:23.170Z,13556
2018-07-25T06:27:48.711Z,13548
2018-07-25T06:28:14.214Z,13660
2018-07-25T06:28:39.711Z,13772
2018-07-25T06:29:05.232Z,14032
2018-07-25T06:29:30.806Z,14312
2018-07-25T06:29:56.306Z,14604
2018-07-25T06:30:21.811Z,14892
2018-07-25T06:30:47.342Z,15108
2018-07-25T06:31:12.840Z,15224
2018-07-25T06:31:38.351Z,15364
2018-07-25T06:32:03.849Z,15572
2018-07-25T06:32:29.358Z,15628
2018-07-25T06:32:54.886Z,15776
2018-07-25T06:33:20.422Z,15840
2018-07-25T06:33:45.915Z,16000
2018-07-25T06:34:59.275Z,16384
2018-07-25T06:35:24.794Z,16384
2018-07-25T06:35:50.313Z,16384
2018-07-25T06:36:15.820Z,16416
2018-07-25T06:36:41.330Z,16448
2018-07-25T06:37:06.849Z,16448
2018-07-25T06:37:32.353Z,16416
2018-07-25T06:37:57.897Z,16384
2018-07-25T06:38:23.391Z,16352
2018-07-25T06:38:48.866Z,16256
2018-07-25T06:39:14.356Z,16192
2018-07-25T06:39:39.876Z,16160
2018-07-25T06:40:05.345Z,16128
2018-07-25T06:40:30.848Z,16384
2018-07-25T06:40:56.331Z,18752
2018-07-25T06:41:21.846Z,23168
2018-07-25T06:41:47.327Z,29120
2018-07-25T06:42:12.858Z,35296
2018-07-25T06:42:38.363Z,41216
2018-07-25T06:43:03.867Z,47008
2018-07-25T06:43:29.386Z,50784
2018-07-25T06:43:54.862Z,52576
2018-07-25T06:44:20.363Z,51200
2018-07-25T06:44:45.845Z,50240
2018-07-25T06:45:11.360Z,49056
2018-07-25T06:45:36.864Z,48704
2018-07-25T06:46:02.341Z,48992
2018-07-25T06:46:27.867Z,50560
2018-07-25T06:46:53.343Z,51936
2018-07-25T06:48:06.693Z,55200
2018-07-25T06:48:32.188Z,55744
2018-07-25T06:48:57.698Z,55072
2018-07-25T06:49:23.230Z,54528
2018-07-25T06:49:48.756Z,54272
2018-07-25T06:50:14.207Z,53120
2018-07-25T06:50:39.746Z,52672
2018-07-25T06:51:05.247Z,52096
2018-07-25T06:51:30.706Z,51808
2018-07-25T06:51:56.187Z,50944
2018-07-25T06:52:21.679Z,49952
2018-07-25T06:52:47.174Z,48512
2018-07-25T06:53:12.653Z,44384
2018-07-25T06:53:38.156Z,37824
2018-07-25T06:54:03.644Z,30208
2018-07-25T06:54:29.134Z,22720
2018-07-25T06:54:54.626Z,16288
2018-07-25T06:55:20.136Z,11420
2018-07-25T06:56:33.652Z,9384
2018-07-25T06:56:59.126Z,9144
2018-07-25T06:57:24.666Z,8940
2018-07-25T06:57:50.090Z,8780
2018-07-25T06:58:15.603Z,8636
2018-07-25T06:58:41.100Z,8524
2018-07-25T06:59:06.572Z,8416
2018-07-25T06:59:32.099Z,8304
2018-07-25T06:59:57.620Z,8200
2018-07-25T07:00:23.127Z,8104
2018-07-25T07:00:48.623Z,8016
2018-07-25T07:01:14.152Z,7932
2018-07-25T07:01:39.605Z,7852
2018-07-25T07:02:05.100Z,7772
2018-07-25T07:02:30.596Z,7700
2018-07-25T07:02:56.108Z,7624
2018-07-25T07:03:21.614Z,7560
2018-07-25T07:03:47.115Z,7488
2018-07-25T07:04:12.595Z,7416
2018-07-25T07:04:38.145Z,7360
2018-07-25T07:05:03.670Z,7308
2018-07-25T07:05:29.201Z,7260
2018-07-25T07:05:54.659Z,7224
2018-07-25T07:06:20.160Z,7180
2018-07-25T07:06:45.791Z,7152
2018-07-25T07:07:11.190Z,7116
2018-07-25T07:07:36.698Z,7084
2018-07-25T07:08:02.221Z,7044
2018-07-25T07:08:27.708Z,7012
2018-07-25T07:08:53.249Z,6988
2018-07-25T07:09:18.712Z,6976
2018-07-25T07:09:44.176Z,6976
2018-07-25T07:10:09.732Z,6996
2018-07-25T07:10:35.169Z,7028
2018-07-25T07:11:00.660Z,7064
2018-07-25T07:11:26.158Z,7096
2018-07-25T07:11:51.699Z,7124
2018-07-25T07:12:17.205Z,7144
2018-07-25T07:12:42.700Z,7080
2018-07-25T07:13:08.215Z,7196
2018-07-25T07:13:33.723Z,7224
2018-07-25T07:13:59.194Z,7256
2018-07-25T07:14:24.663Z,7280
2018-07-25T07:14:50.182Z,7312
2018-07-25T07:15:15.759Z,7340
2018-07-25T07:15:41.209Z,7380
2018-07-25T07:16:06.708Z,7412
2018-07-25T07:16:32.222Z,7444
2018-07-25T07:16:57.738Z,7480
2018-07-25T07:17:23.300Z,7516
2018-07-25T07:17:48.715Z,7548
2018-07-25T07:18:14.232Z,7576
2018-07-25T07:18:39.718Z,7608
2018-07-25T07:19:05.191Z,7632
2018-07-25T07:19:30.682Z,7664
2018-07-25T07:19:56.151Z,7716
2018-07-25T07:20:21.667Z,7756
2018-07-25T07:20:47.177Z,7792
2018-07-25T07:21:12.661Z,7840
2018-07-25T07:21:38.209Z,7892
2018-07-25T07:22:03.726Z,7976
2018-07-25T07:22:29.196Z,8056
2018-07-25T07:22:54.695Z,8144
2018-07-25T07:23:20.209Z,8268
2018-07-25T07:23:45.702Z,8432
2018-07-25T07:24:11.219Z,8772
2018-07-25T07:24:36.684Z,9452
2018-07-25T07:25:02.191Z,10204
2018-07-25T07:25:27.697Z,11144
2018-07-25T07:25:53.196Z,12208
2018-07-25T07:26:18.704Z,13268
2018-07-25T07:26:44.169Z,14440
2018-07-25T07:27:09.647Z,15372
2018-07-25T07:27:35.221Z,16064
2018-07-25T07:28:00.682Z,16352
2018-07-25T07:28:26.156Z,16672
2018-07-25T07:28:51.679Z,17088
2018-07-25T07:29:17.174Z,17472
2018-07-25T07:29:42.682Z,17792
2018-07-25T07:30:08.124Z,18048
2018-07-25T07:30:33.689Z,18144
2018-07-25T07:30:59.200Z,18048
2018-07-25T07:31:24.700Z,17952
2018-07-25T07:31:50.156Z,18176
2018-07-25T07:32:15.719Z,18176
2018-07-25T07:32:41.217Z,18464
2018-07-25T07:33:06.715Z,18944
2018-07-25T07:33:32.240Z,19488
2018-07-25T07:33:57.743Z,20384
2018-07-25T07:34:23.257Z,21408
2018-07-25T07:34:48.777Z,22432
2018-07-25T07:35:14.280Z,23296
2018-07-25T07:35:39.776Z,23776
2018-07-25T07:36:05.231Z,24448
2018-07-25T07:36:30.729Z,24736
2018-07-25T07:36:56.217Z,25504
2018-07-25T07:37:21.826Z,26432
2018-07-25T07:37:47.346Z,27360
2018-07-25T07:38:12.769Z,28416
2018-07-25T07:39:26.559Z,30432
2018-07-25T07:39:52.057Z,31680
2018-07-25T07:40:17.544Z,32992
2018-07-25T07:40:43.039Z,34720
2018-07-25T07:41:08.523Z,35904
2018-07-25T07:41:34.039Z,36416
2018-07-25T07:41:59.532Z,36704
2018-07-25T07:42:25.018Z,35424
2018-07-25T07:42:50.559Z,34048
2018-07-25T07:44:08.986Z,28864
2018-07-25T07:44:34.511Z,26656
2018-07-25T07:45:00.025Z,24608
2018-07-25T07:45:25.498Z,21024
2018-07-25T07:45:51.007Z,18112
2018-07-25T07:46:16.496Z,16448
2018-07-25T07:46:41.980Z,14116
2018-07-25T07:47:07.493Z,13292
2018-07-25T07:47:32.986Z,13024
2018-07-25T07:47:58.493Z,12836
2018-07-25T07:48:23.967Z,12780
2018-07-25T07:48:49.513Z,12724
2018-07-25T07:49:15.066Z,12584
2018-07-25T07:49:40.582Z,12564
2018-07-25T07:50:06.149Z,12604
2018-07-25T07:50:31.639Z,12696
2018-07-25T07:50:57.116Z,12712
2018-07-25T07:51:22.622Z,12676
2018-07-25T07:51:48.093Z,12664
2018-07-25T07:52:13.566Z,12560
2018-07-25T07:52:39.117Z,12480
2018-07-25T07:53:04.592Z,12432
2018-07-25T07:53:30.136Z,12300
2018-07-25T07:53:55.669Z,12372
2018-07-25T07:54:21.128Z,12400
2018-07-25T07:54:46.630Z,12380
2018-07-25T07:55:12.129Z,12368
2018-07-25T07:55:37.606Z,12316
2018-07-25T07:56:03.073Z,12296
2018-07-25T07:56:28.557Z,12264
2018-07-25T07:56:54.081Z,12276
2018-07-25T07:57:19.631Z,12344
2018-07-25T07:57:45.149Z,12444
2018-07-25T07:58:10.645Z,12436
2018-07-25T07:58:36.190Z,12520
2018-07-25T07:59:01.660Z,12528
2018-07-25T07:59:27.216Z,12432
2018-07-25T08:00:50.711Z,12064
2018-07-25T08:01:16.227Z,12040
2018-07-25T08:01:41.732Z,11956
2018-07-25T08:02:07.201Z,11816
2018-07-25T08:02:32.745Z,11808
2018-07-25T08:02:58.257Z,11656
2018-07-25T08:03:23.765Z,11520
2018-07-25T08:03:49.238Z,11504
2018-07-25T08:04:14.736Z,11532
2018-07-25T08:04:40.225Z,11468
2018-07-25T08:05:05.830Z,11560
2018-07-25T08:05:31.238Z,11424
2018-07-25T08:06:49.704Z,10080
2018-07-25T08:07:15.193Z,9516
2018-07-25T08:07:40.692Z,9032
2018-07-25T08:08:06.173Z,8764
2018-07-25T08:08:31.656Z,8640
2018-07-25T08:08:57.184Z,8592
2018-07-25T08:09:22.667Z,8564
2018-07-25T08:09:48.156Z,8548
2018-07-25T08:10:13.711Z,8544
2018-07-25T08:10:39.224Z,8504
2018-07-25T08:11:04.678Z,8480
2018-07-25T08:11:30.202Z,8440
2018-07-25T08:12:49.190Z,8388
2018-07-25T08:13:14.695Z,8388
2018-07-25T08:13:40.197Z,8392
2018-07-25T08:14:05.677Z,8432
2018-07-25T08:14:31.230Z,8492
2018-07-25T08:14:56.727Z,8616
2018-07-25T08:15:22.258Z,8728
2018-07-25T08:15:47.793Z,8864
2018-07-25T08:16:13.334Z,8972
2018-07-25T08:16:38.831Z,9080
2018-07-25T08:17:04.328Z,9128
2018-07-25T08:17:29.817Z,9136
2018-07-25T08:17:55.325Z,9156
2018-07-25T08:18:20.809Z,9136
2018-07-25T08:18:46.270Z,9144
2018-07-25T08:19:11.752Z,9136
2018-07-25T08:19:37.273Z,9120
2018-07-25T08:20:02.768Z,9116
2018-07-25T08:20:28.234Z,9100
2018-07-25T08:20:53.786Z,9040
2018-07-25T08:21:19.318Z,9080
2018-07-25T08:21:44.797Z,9080
2018-07-25T08:22:10.258Z,9048
2018-07-25T08:22:35.741Z,9040
2018-07-25T08:23:44.494Z,9008
2018-07-25T08:24:09.979Z,8952
2018-07-25T08:24:35.465Z,8888
2018-07-25T08:25:00.962Z,8812
2018-07-25T08:25:26.468Z,8708
2018-07-25T08:25:51.973Z,8600
2018-07-25T08:26:17.477Z,8484
2018-07-25T08:26:43.031Z,8388
2018-07-25T08:27:08.491Z,8264
2018-07-25T08:27:33.989Z,8180
2018-07-25T08:27:59.509Z,8100
2018-07-25T08:28:25.002Z,8020
2018-07-25T08:28:50.543Z,7924
2018-07-25T08:29:16.113Z,7848
2018-07-25T08:30:29.426Z,7644
2018-07-25T08:30:54.932Z,7556
2018-07-25T08:31:20.446Z,7488
2018-07-25T08:31:45.957Z,7428
2018-07-25T08:32:11.455Z,7356
2018-07-25T08:32:36.961Z,7312
2018-07-25T08:33:02.459Z,7248
2018-07-25T08:33:27.991Z,7180
2018-07-25T08:33:53.480Z,7120
2018-07-25T08:34:19.003Z,7056
2018-07-25T08:34:44.510Z,7016
2018-07-25T08:35:09.983Z,6964
2018-07-25T08:35:35.514Z,6912
2018-07-25T08:36:00.957Z,6864
2018-07-25T08:36:26.465Z,6820
2018-07-25T08:36:51.950Z,6772
2018-07-25T08:37:17.455Z,6708
2018-07-25T08:37:42.968Z,6664
2018-07-25T08:38:08.423Z,6624
2018-07-25T08:38:33.893Z,6584
2018-07-25T08:38:59.348Z,6548
2018-07-25T08:39:24.846Z,6512
2018-07-25T08:39:50.344Z,6472
2018-07-25T08:40:15.849Z,6432
2018-07-25T08:40:41.325Z,6372
2018-07-25T08:41:06.876Z,6316
2018-07-25T08:41:32.399Z,6260
2018-07-25T08:41:57.880Z,6212
2018-07-25T08:42:23.361Z,6168
2018-07-25T08:42:48.904Z,6132
2018-07-25T08:43:14.425Z,6108
2018-07-25T08:43:39.920Z,6076
2018-07-25T08:44:05.406Z,6048
2018-07-25T08:44:30.959Z,6016
2018-07-25T08:44:56.473Z,5996
2018-07-25T08:45:21.960Z,5956
2018-07-25T08:45:47.444Z,5932
2018-07-25T08:46:12.963Z,5900
2018-07-25T08:46:38.488Z,5864
2018-07-25T08:47:03.949Z,5836
2018-07-25T08:47:29.498Z,5808
2018-07-25T08:47:55.005Z,5788
2018-07-25T08:48:20.539Z,5764
2018-07-25T08:48:46.030Z,5748
2018-07-25T08:49:11.497Z,5732
2018-07-25T08:49:36.999Z,5720
2018-07-25T08:50:02.529Z,5700
2018-07-25T08:50:28.005Z,5684
2018-07-25T08:50:53.517Z,5672
2018-07-25T08:51:19.019Z,5660
2018-07-25T08:51:44.521Z,5640
2018-07-25T08:52:10.025Z,5636
2018-07-25T08:52:35.563Z,5624
2018-07-25T08:53:01.034Z,5608
2018-07-25T08:53:26.564Z,5580
2018-07-25T08:53:52.036Z,5544
2018-07-25T08:54:17.518Z,5500
2018-07-25T08:54:42.999Z,5464
2018-07-25T08:55:08.510Z,5444
2018-07-25T08:55:34.007Z,5428
2018-07-25T08:55:59.490Z,5416
2018-07-25T08:56:24.987Z,5404
2018-07-25T08:56:50.509Z,5392
2018-07-25T08:57:15.966Z,5380
2018-07-25T08:57:41.552Z,5368
2018-07-25T08:58:06.973Z,5352
2018-07-25T08:58:32.469Z,5340
2018-07-25T08:58:57.970Z,5336
2018-07-25T08:59:23.476Z,5328
2018-07-25T08:59:48.969Z,5320
2018-07-25T09:00:14.477Z,5312
2018-07-25T09:00:40.047Z,5304
2018-07-25T09:01:05.556Z,5296
2018-07-25T09:01:31.034Z,5288
2018-07-25T09:01:56.559Z,5284
2018-07-25T09:02:22.077Z,5276
2018-07-25T09:02:47.601Z,5268
2018-07-25T09:03:55.877Z,5256
2018-07-25T09:04:21.386Z,5248
2018-07-25T09:04:46.901Z,5240
2018-07-25T09:05:12.411Z,5236
2018-07-25T09:05:37.903Z,5228
2018-07-25T09:06:03.385Z,5224
2018-07-25T09:06:28.871Z,5224
2018-07-25T09:06:54.355Z,5220
2018-07-25T09:07:19.853Z,5212
2018-07-25T09:07:45.377Z,5204
2018-07-25T09:08:10.847Z,5200
2018-07-25T09:08:36.371Z,5196
2018-07-25T09:09:01.868Z,5188
2018-07-25T09:09:27.393Z,5180
2018-07-25T09:09:52.893Z,5172
2018-07-25T09:10:18.414Z,5168
2018-07-25T09:10:43.920Z,5160
2018-07-25T09:11:09.406Z,5160
2018-07-25T09:11:34.945Z,5156
2018-07-25T09:12:00.425Z,5148
2018-07-25T09:12:25.918Z,5140
2018-07-25T09:12:51.489Z,5128
2018-07-25T09:13:16.924Z,5120
2018-07-25T09:13:42.406Z,5112
2018-07-25T09:14:07.885Z,5108
2018-07-25T09:14:33.370Z,5104
2018-07-25T09:14:58.853Z,5104
2018-07-25T09:15:24.341Z,5100
2018-07-25T09:15:49.814Z,5092
2018-07-25T09:16:15.310Z,5084
2018-07-25T09:16:40.802Z,5080
2018-07-25T09:17:06.286Z,5072
2018-07-25T09:17:31.778Z,5068
2018-07-25T09:17:57.286Z,5068
2018-07-25T09:18:22.790Z,5060
2018-07-25T09:18:48.282Z,5048
2018-07-25T09:19:13.787Z,5056
2018-07-25T09:19:39.332Z,5052
2018-07-25T09:20:04.767Z,5044
2018-07-25T09:20:30.280Z,5036
2018-07-25T09:20:55.769Z,5032
2018-07-25T09:21:21.306Z,5032
2018-07-25T09:21:46.768Z,5028
2018-07-25T09:22:12.268Z,5028
2018-07-25T09:22:37.791Z,5024
2018-07-25T09:23:03.325Z,5020
2018-07-25T09:23:28.831Z,5012
2018-07-25T09:23:54.356Z,5012
2018-07-25T09:24:19.856Z,5008
2018-07-25T09:24:45.354Z,5004
2018-07-25T09:25:10.823Z,4996
2018-07-25T09:25:36.385Z,4992
2018-07-25T09:26:01.758Z,4984
2018-07-25T09:26:27.252Z,4980
2018-07-25T09:26:52.769Z,4968
2018-07-25T09:27:18.304Z,4964
2018-07-25T09:27:43.771Z,4960
2018-07-25T09:28:09.260Z,4960
2018-07-25T09:28:34.818Z,4956
2018-07-25T09:29:00.312Z,4960
2018-07-25T09:29:25.815Z,4956
2018-07-25T09:29:51.295Z,4948
2018-07-25T09:30:16.791Z,4944
2018-07-25T09:30:42.316Z,4936
2018-07-25T09:31:07.795Z,4932
2018-07-25T09:31:33.275Z,4924
2018-07-25T09:31:58.804Z,4916
2018-07-25T09:32:24.318Z,4908
2018-07-25T09:32:49.793Z,4900
2018-07-25T09:33:15.272Z,4892
2018-07-25T09:33:40.821Z,4892
2018-07-25T09:34:06.348Z,4888
2018-07-25T09:34:31.849Z,4880
2018-07-25T09:34:57.380Z,4876
2018-07-25T09:35:22.851Z,4876
2018-07-25T09:35:48.337Z,4872
2018-07-25T09:36:13.833Z,4868
2018-07-25T09:36:39.320Z,4864
2018-07-25T09:37:04.819Z,4860
2018-07-25T09:37:30.337Z,4856
2018-07-25T09:37:55.867Z,4852
2018-07-25T09:38:21.420Z,4844
2018-07-25T09:38:46.906Z,4836
2018-07-25T09:39:12.405Z,4828
2018-07-25T09:39:37.903Z,4820
2018-07-25T09:40:03.400Z,4812
2018-07-25T09:40:28.881Z,4808
2018-07-25T09:40:54.447Z,4796
2018-07-25T09:41:19.898Z,4792
2018-07-25T09:41:45.390Z,4784
2018-07-25T09:42:10.895Z,4780
2018-07-25T09:42:36.379Z,4780
2018-07-25T09:43:01.895Z,4772
2018-07-25T09:43:27.407Z,4764
2018-07-25T09:43:53.090Z,4760
2018-07-25T09:44:18.580Z,4752
2018-07-25T09:44:44.083Z,4744
2018-07-25T09:45:09.558Z,4744
2018-07-25T09:45:35.091Z,4740
2018-07-25T09:46:00.557Z,4740
2018-07-25T09:46:26.092Z,4736
2018-07-25T09:46:51.657Z,4728
2018-07-25T09:47:17.064Z,4724
2018-07-25T09:47:42.553Z,4720
2018-07-25T09:48:08.068Z,4720
2018-07-25T09:48:33.558Z,4708
2018-07-25T09:48:59.045Z,4700
2018-07-25T09:49:24.530Z,4692
2018-07-25T09:49:50.046Z,4692
2018-07-25T09:50:15.525Z,4692
2018-07-25T09:50:41.050Z,4684
2018-07-25T09:51:06.553Z,4676
2018-07-25T09:51:32.039Z,4668
2018-07-25T09:51:57.526Z,4656
2018-07-25T09:52:23.058Z,4652
2018-07-25T09:52:48.535Z,4644
2018-07-25T09:53:14.090Z,4640
2018-07-25T09:53:39.543Z,4636
2018-07-25T09:54:05.035Z,4636
2018-07-25T09:54:30.507Z,4632
2018-07-25T09:54:56.010Z,4628
2018-07-25T09:55:21.538Z,4624
2018-07-25T09:55:47.020Z,4616
2018-07-25T09:56:12.482Z,4616
2018-07-25T09:56:37.981Z,4612
2018-07-25T09:57:03.469Z,4608
2018-07-25T09:57:28.964Z,4600
2018-07-25T09:57:54.489Z,4596
2018-07-25T09:58:19.972Z,4592
2018-07-25T09:58:45.480Z,4588
2018-07-25T09:59:10.981Z,4588
2018-07-25T09:59:36.474Z,4584
2018-07-25T10:00:01.980Z,4580
2018-07-25T10:00:27.490Z,4576
2018-07-25T10:00:53.024Z,4572